Unity, Canada
Current Conditions -  °F | °C
As of 10:00 AM on Thursday 23 Oct 2014 (Local Time) from CYQW Reporting Station
Scattered Clouds Scattered Clouds  
Wind Chill: 38°   Ceiling: Unl
Heat Index: 45°   Visibility: 9mi
Dew Point: 37°   Wind: 14mph
Humidity: 76%   Direction: 110°ESE
Pressure: 29.56"   Gusts: NA
Location:  52.43°N, 109.17°W
Report Text: CYQW 231600Z AUTO 11012KT 9SM SCT130 07/03 A2956 RMK SLP028
Loading
Personal Weather Stations






























Interactive Weather Map
Tropical Storm Tracking
New forecast layout! Learn more

10-Day Weather Forecast

Advertisements
Track Severe Weather on mobile